Aérodrome :
LOGIN :

S'inscrire | Disclaimer

   EN    FR    IT 

 










Légende :    VFR   VFR Marginal   IFR   IFR Intensif   IFR Très Intensif
Visi : 
Plafond : 
>= 8 km
>= 3000ft
5 à 8 km
1000 à 3000 ft
1500m à 5 km
500 à 1000 ft
800 à 1500m
200 à 500 ft
< 800m
< 200 ft
Symboles :   Orages  Brouillard  Fortes neiges  Fortes précipitations  Vent > 20 kt
SIGMETs :   Divers  Orages  Givrage  Turbulence  Onde Orograph.  Cendres Volcan.






- Altitude de l'aérodrome : 408 ft
- Code IATA : FKB


EDSB - Karlsruhe Baden Baden

DERNIER METAR :
  • 250050Z AUTO 02006KT 9999 1800 NCD 19/14 Q1014

METARs EXPIRÉS :
  • 250020Z AUTO 02008KT 9999 NCD 19/14 Q1015
  • 242350Z AUTO 03008KT 9999 NCD 19/14 Q1015
  • 242320Z AUTO 02008KT 9999 NCD 20/14 Q1015
  • 242250Z AUTO 02007KT 9999 NCD 19/14 Q1015
  • 242150Z AUTO 01004KT 9999 NCD 20/14 Q1016
  • 242120Z AUTO 02004KT 9999 NCD 21/14 Q1016
  • 242050Z 04005KT CAVOK 21/14 Q1016
  • 242020Z 04006KT CAVOK 21/14 Q1016

TAF TAF EDSB
Valide du 25 à 00h jusqu'au 26 à 00h UTC


242300Z 2500/2524 02005KT CAVOK
BECMG 2506/2508 02010KT
BECMG 2518/2521 03005KT



MET'MAP, la Météo Aéronautique d'un coup d'oeil ! - Copyright ORBIFLY Décembre 2007 - Disclaimer

ORBIFLY MET'MAP TEAM :

Programmation & Développement : Alexandra Zaïnal
Sur une idée originale de : Baudouin d'Aumeries
Soutien technique & logistique : Manuel Goepfert
Assistance : Marc-Olivier Méhu




SOURCES & CREDITS :

   NOAA